sensor_id;sensor_type;location;lat;lon;timestamp;P1;durP1;ratioP1;P2;durP2;ratioP2
66603;SDS011;53460;39.612;8.822;2023-04-03T00:00:32;4.93;;;1.10;;
66603;SDS011;53460;39.612;8.822;2023-04-03T00:02:57;4.22;;;1.60;;
66603;SDS011;53460;39.612;8.822;2023-04-03T00:05:23;5.57;;;1.60;;
66603;SDS011;53460;39.612;8.822;2023-04-03T00:07:48;4.47;;;1.58;;
66603;SDS011;53460;39.612;8.822;2023-04-03T00:10:15;3.88;;;1.35;;
66603;SDS011;53460;39.612;8.822;2023-04-03T00:12:40;4.25;;;1.38;;
66603;SDS011;53460;39.612;8.822;2023-04-03T00:15:06;5.93;;;1.48;;
66603;SDS011;53460;39.612;8.822;2023-04-03T00:17:32;5.68;;;1.58;;
66603;SDS011;53460;39.612;8.822;2023-04-03T00:19:57;4.43;;;1.30;;
66603;SDS011;53460;39.612;8.822;2023-04-03T00:22:23;6.45;;;1.25;;
66603;SDS011;53460;39.612;8.822;2023-04-03T00:24:48;6.18;;;1.55;;
66603;SDS011;53460;39.612;8.822;2023-04-03T00:27:14;4.20;;;1.30;;
66603;SDS011;53460;39.612;8.822;2023-04-03T00:29:40;5.38;;;1.23;;
66603;SDS011;53460;39.612;8.822;2023-04-03T00:32:06;9.98;;;1.50;;
66603;SDS011;53460;39.612;8.822;2023-04-03T00:34:31;6.20;;;1.33;;
66603;SDS011;53460;39.612;8.822;2023-04-03T00:36:57;6.55;;;1.50;;
66603;SDS011;53460;39.612;8.822;2023-04-03T00:39:22;4.88;;;1.67;;
66603;SDS011;53460;39.612;8.822;2023-04-03T00:41:48;7.28;;;1.92;;
66603;SDS011;53460;39.612;8.822;2023-04-03T00:44:20;4.32;;;1.70;;
66603;SDS011;53460;39.612;8.822;2023-04-03T00:46:47;6.95;;;1.50;;
66603;SDS011;53460;39.612;8.822;2023-04-03T00:49:13;5.68;;;1.30;;
66603;SDS011;53460;39.612;8.822;2023-04-03T00:51:38;6.00;;;1.45;;
66603;SDS011;53460;39.612;8.822;2023-04-03T00:54:05;6.85;;;1.75;;
66603;SDS011;53460;39.612;8.822;2023-04-03T00:56:30;6.38;;;1.73;;
66603;SDS011;53460;39.612;8.822;2023-04-03T01:01:55;2.92;;;1.40;;
66603;SDS011;53460;39.612;8.822;2023-04-03T01:04:31;8.32;;;1.95;;
66603;SDS011;53460;39.612;8.822;2023-04-03T01:06:58;5.55;;;1.27;;
66603;SDS011;53460;39.612;8.822;2023-04-03T01:09:25;6.68;;;1.63;;
66603;SDS011;53460;39.612;8.822;2023-04-03T01:11:51;5.95;;;1.70;;
66603;SDS011;53460;39.612;8.822;2023-04-03T01:14:17;7.57;;;1.42;;
66603;SDS011;53460;39.612;8.822;2023-04-03T01:16:51;5.50;;;2.00;;
66603;SDS011;53460;39.612;8.822;2023-04-03T01:19:17;3.58;;;1.30;;
66603;SDS011;53460;39.612;8.822;2023-04-03T01:26:40;4.35;;;1.83;;
66603;SDS011;53460;39.612;8.822;2023-04-03T01:29:06;8.45;;;2.00;;
66603;SDS011;53460;39.612;8.822;2023-04-03T01:34:00;4.53;;;1.67;;
66603;SDS011;53460;39.612;8.822;2023-04-03T01:36:29;4.95;;;1.48;;
66603;SDS011;53460;39.612;8.822;2023-04-03T01:38:56;5.05;;;1.40;;
66603;SDS011;53460;39.612;8.822;2023-04-03T01:41:22;6.68;;;1.85;;
66603;SDS011;53460;39.612;8.822;2023-04-03T01:43:50;5.13;;;1.77;;
66603;SDS011;53460;39.612;8.822;2023-04-03T01:46:16;2.63;;;1.48;;
66603;SDS011;53460;39.612;8.822;2023-04-03T01:48:42;5.47;;;1.50;;
66603;SDS011;53460;39.612;8.822;2023-04-03T01:51:08;4.57;;;1.42;;
66603;SDS011;53460;39.612;8.822;2023-04-03T01:53:34;3.30;;;1.50;;
66603;SDS011;53460;39.612;8.822;2023-04-03T01:55:59;5.20;;;1.45;;
66603;SDS011;53460;39.612;8.822;2023-04-03T01:58:25;6.32;;;1.50;;
66603;SDS011;53460;39.612;8.822;2023-04-03T02:00:52;3.30;;;1.25;;
66603;SDS011;53460;39.612;8.822;2023-04-03T02:03:18;6.65;;;1.60;;
66603;SDS011;53460;39.612;8.822;2023-04-03T02:05:43;6.30;;;1.35;;
66603;SDS011;53460;39.612;8.822;2023-04-03T02:08:09;5.38;;;1.35;;
66603;SDS011;53460;39.612;8.822;2023-04-03T02:10:35;4.60;;;1.08;;
66603;SDS011;53460;39.612;8.822;2023-04-03T02:13:00;3.03;;;1.23;;
66603;SDS011;53460;39.612;8.822;2023-04-03T02:15:26;8.35;;;1.65;;
66603;SDS011;53460;39.612;8.822;2023-04-03T02:17:51;10.27;;;1.92;;
66603;SDS011;53460;39.612;8.822;2023-04-03T02:20:17;4.13;;;1.80;;
66603;SDS011;53460;39.612;8.822;2023-04-03T02:22:43;4.43;;;1.70;;
66603;SDS011;53460;39.612;8.822;2023-04-03T02:25:09;4.43;;;1.70;;
66603;SDS011;53460;39.612;8.822;2023-04-03T02:27:35;8.00;;;1.75;;
66603;SDS011;53460;39.612;8.822;2023-04-03T02:30:01;4.85;;;1.88;;
66603;SDS011;53460;39.612;8.822;2023-04-03T02:32:27;4.13;;;1.23;;
66603;SDS011;53460;39.612;8.822;2023-04-03T02:34:53;6.00;;;1.38;;
66603;SDS011;53460;39.612;8.822;2023-04-03T02:37:19;8.38;;;1.33;;
66603;SDS011;53460;39.612;8.822;2023-04-03T02:39:46;6.90;;;1.80;;
66603;SDS011;53460;39.612;8.822;2023-04-03T02:42:11;4.82;;;1.55;;
66603;SDS011;53460;39.612;8.822;2023-04-03T02:44:37;3.75;;;1.25;;
66603;SDS011;53460;39.612;8.822;2023-04-03T02:47:02;3.70;;;1.33;;
66603;SDS011;53460;39.612;8.822;2023-04-03T02:49:28;7.82;;;1.70;;
66603;SDS011;53460;39.612;8.822;2023-04-03T02:51:53;6.07;;;1.70;;
66603;SDS011;53460;39.612;8.822;2023-04-03T02:54:19;8.38;;;1.60;;
66603;SDS011;53460;39.612;8.822;2023-04-03T02:56:49;6.05;;;1.60;;
66603;SDS011;53460;39.612;8.822;2023-04-03T02:59:15;5.38;;;1.50;;
66603;SDS011;53460;39.612;8.822;2023-04-03T03:01:41;6.68;;;1.73;;
66603;SDS011;53460;39.612;8.822;2023-04-03T03:04:06;5.88;;;1.65;;
66603;SDS011;53460;39.612;8.822;2023-04-03T03:06:32;6.88;;;1.75;;
66603;SDS011;53460;39.612;8.822;2023-04-03T03:08:57;3.40;;;1.30;;
66603;SDS011;53460;39.612;8.822;2023-04-03T03:11:23;3.35;;;1.17;;
66603;SDS011;53460;39.612;8.822;2023-04-03T03:13:48;4.70;;;1.70;;
66603;SDS011;53460;39.612;8.822;2023-04-03T03:16:14;6.68;;;1.67;;
66603;SDS011;53460;39.612;8.822;2023-04-03T03:18:40;5.45;;;1.65;;
66603;SDS011;53460;39.612;8.822;2023-04-03T03:21:05;5.25;;;1.63;;
66603;SDS011;53460;39.612;8.822;2023-04-03T03:23:31;8.73;;;1.30;;
66603;SDS011;53460;39.612;8.822;2023-04-03T03:25:58;8.15;;;1.73;;
66603;SDS011;53460;39.612;8.822;2023-04-03T03:28:24;11.85;;;1.52;;
66603;SDS011;53460;39.612;8.822;2023-04-03T03:30:49;8.13;;;2.00;;
66603;SDS011;53460;39.612;8.822;2023-04-03T03:33:17;4.60;;;1.65;;
66603;SDS011;53460;39.612;8.822;2023-04-03T03:35:42;5.70;;;1.60;;
66603;SDS011;53460;39.612;8.822;2023-04-03T03:38:08;8.13;;;1.98;;
66603;SDS011;53460;39.612;8.822;2023-04-03T03:40:34;5.70;;;1.58;;
66603;SDS011;53460;39.612;8.822;2023-04-03T03:42:59;12.70;;;1.85;;
66603;SDS011;53460;39.612;8.822;2023-04-03T03:45:25;5.82;;;1.92;;
66603;SDS011;53460;39.612;8.822;2023-04-03T03:47:50;7.40;;;2.00;;
66603;SDS011;53460;39.612;8.822;2023-04-03T03:50:16;7.38;;;1.60;;
66603;SDS011;53460;39.612;8.822;2023-04-03T03:52:41;7.25;;;1.60;;
66603;SDS011;53460;39.612;8.822;2023-04-03T03:55:07;5.57;;;1.30;;
66603;SDS011;53460;39.612;8.822;2023-04-03T03:57:35;8.85;;;2.10;;
66603;SDS011;53460;39.612;8.822;2023-04-03T04:00:01;4.30;;;1.33;;
66603;SDS011;53460;39.612;8.822;2023-04-03T04:02:27;3.17;;;1.38;;
66603;SDS011;53460;39.612;8.822;2023-04-03T04:04:53;6.13;;;1.50;;
66603;SDS011;53460;39.612;8.822;2023-04-03T04:07:19;5.95;;;1.70;;
66603;SDS011;53460;39.612;8.822;2023-04-03T04:09:45;4.72;;;1.42;;
66603;SDS011;53460;39.612;8.822;2023-04-03T04:12:10;5.78;;;1.95;;
66603;SDS011;53460;39.612;8.822;2023-04-03T04:14:37;4.95;;;1.25;;
66603;SDS011;53460;39.612;8.822;2023-04-03T04:17:04;5.70;;;1.63;;
66603;SDS011;53460;39.612;8.822;2023-04-03T04:19:29;4.20;;;1.55;;
66603;SDS011;53460;39.612;8.822;2023-04-03T04:21:55;5.63;;;1.35;;
66603;SDS011;53460;39.612;8.822;2023-04-03T04:24:21;5.30;;;1.60;;
66603;SDS011;53460;39.612;8.822;2023-04-03T04:26:50;6.68;;;2.13;;
66603;SDS011;53460;39.612;8.822;2023-04-03T04:29:16;6.22;;;1.40;;
66603;SDS011;53460;39.612;8.822;2023-04-03T04:31:45;7.32;;;2.00;;
66603;SDS011;53460;39.612;8.822;2023-04-03T04:34:10;4.25;;;1.30;;
66603;SDS011;53460;39.612;8.822;2023-04-03T04:36:38;4.15;;;1.50;;
66603;SDS011;53460;39.612;8.822;2023-04-03T04:39:03;4.35;;;1.50;;
66603;SDS011;53460;39.612;8.822;2023-04-03T04:41:29;5.47;;;1.95;;
66603;SDS011;53460;39.612;8.822;2023-04-03T04:43:55;6.40;;;1.70;;
66603;SDS011;53460;39.612;8.822;2023-04-03T04:46:22;7.90;;;1.95;;
66603;SDS011;53460;39.612;8.822;2023-04-03T04:48:52;7.18;;;2.55;;
66603;SDS011;53460;39.612;8.822;2023-04-03T04:51:20;8.85;;;2.30;;
66603;SDS011;53460;39.612;8.822;2023-04-03T04:53:45;10.90;;;2.25;;
66603;SDS011;53460;39.612;8.822;2023-04-03T04:56:13;5.47;;;1.90;;
66603;SDS011;53460;39.612;8.822;2023-04-03T04:58:39;7.38;;;2.05;;
66603;SDS011;53460;39.612;8.822;2023-04-03T05:01:06;6.57;;;1.55;;
66603;SDS011;53460;39.612;8.822;2023-04-03T05:03:36;9.77;;;1.88;;
66603;SDS011;53460;39.612;8.822;2023-04-03T05:06:02;6.97;;;1.63;;
66603;SDS011;53460;39.612;8.822;2023-04-03T05:08:30;9.60;;;2.38;;
66603;SDS011;53460;39.612;8.822;2023-04-03T05:10:56;4.70;;;1.52;;
66603;SDS011;53460;39.612;8.822;2023-04-03T05:13:24;8.55;;;1.95;;
66603;SDS011;53460;39.612;8.822;2023-04-03T05:15:49;6.90;;;1.75;;
66603;SDS011;53460;39.612;8.822;2023-04-03T05:18:15;3.83;;;1.80;;
66603;SDS011;53460;39.612;8.822;2023-04-03T05:20:41;4.50;;;1.80;;
66603;SDS011;53460;39.612;8.822;2023-04-03T05:23:09;5.47;;;1.27;;
66603;SDS011;53460;39.612;8.822;2023-04-03T05:25:34;6.47;;;2.00;;
66603;SDS011;53460;39.612;8.822;2023-04-03T05:28:02;4.85;;;1.70;;
66603;SDS011;53460;39.612;8.822;2023-04-03T05:30:27;3.90;;;1.25;;
66603;SDS011;53460;39.612;8.822;2023-04-03T05:32:53;8.57;;;2.88;;
66603;SDS011;53460;39.612;8.822;2023-04-03T05:35:29;6.18;;;2.17;;
66603;SDS011;53460;39.612;8.822;2023-04-03T05:37:58;8.05;;;2.13;;
66603;SDS011;53460;39.612;8.822;2023-04-03T05:40:23;6.00;;;2.80;;
66603;SDS011;53460;39.612;8.822;2023-04-03T05:42:52;8.27;;;3.17;;
66603;SDS011;53460;39.612;8.822;2023-04-03T05:45:20;8.68;;;3.70;;
66603;SDS011;53460;39.612;8.822;2023-04-03T05:47:46;4.40;;;1.77;;
66603;SDS011;53460;39.612;8.822;2023-04-03T05:50:13;7.95;;;2.08;;
66603;SDS011;53460;39.612;8.822;2023-04-03T05:52:40;6.85;;;1.40;;
66603;SDS011;53460;39.612;8.822;2023-04-03T05:55:07;4.85;;;1.60;;
66603;SDS011;53460;39.612;8.822;2023-04-03T05:57:34;6.97;;;2.22;;
66603;SDS011;53460;39.612;8.822;2023-04-03T05:59:59;5.38;;;1.73;;
66603;SDS011;53460;39.612;8.822;2023-04-03T06:02:25;8.25;;;2.20;;
66603;SDS011;53460;39.612;8.822;2023-04-03T06:04:51;5.70;;;1.95;;
66603;SDS011;53460;39.612;8.822;2023-04-03T06:07:19;6.13;;;2.25;;
66603;SDS011;53460;39.612;8.822;2023-04-03T06:09:51;8.40;;;1.52;;
66603;SDS011;53460;39.612;8.822;2023-04-03T06:12:17;7.70;;;2.35;;
66603;SDS011;53460;39.612;8.822;2023-04-03T06:14:43;6.22;;;2.28;;
66603;SDS011;53460;39.612;8.822;2023-04-03T06:17:08;9.02;;;2.20;;
66603;SDS011;53460;39.612;8.822;2023-04-03T06:19:34;10.30;;;5.05;;
66603;SDS011;53460;39.612;8.822;2023-04-03T06:22:00;8.10;;;2.97;;
66603;SDS011;53460;39.612;8.822;2023-04-03T06:24:26;8.77;;;2.30;;
66603;SDS011;53460;39.612;8.822;2023-04-03T06:26:52;6.20;;;1.40;;
66603;SDS011;53460;39.612;8.822;2023-04-03T06:29:18;5.53;;;2.08;;
66603;SDS011;53460;39.612;8.822;2023-04-03T06:31:43;4.97;;;1.65;;
66603;SDS011;53460;39.612;8.822;2023-04-03T06:34:09;8.63;;;1.67;;
66603;SDS011;53460;39.612;8.822;2023-04-03T06:36:36;5.18;;;1.60;;
66603;SDS011;53460;39.612;8.822;2023-04-03T06:39:01;6.32;;;1.95;;
66603;SDS011;53460;39.612;8.822;2023-04-03T06:41:28;6.28;;;2.17;;
66603;SDS011;53460;39.612;8.822;2023-04-03T06:43:53;5.53;;;1.30;;
66603;SDS011;53460;39.612;8.822;2023-04-03T06:46:21;5.35;;;2.63;;
66603;SDS011;53460;39.612;8.822;2023-04-03T06:48:47;7.38;;;1.73;;
66603;SDS011;53460;39.612;8.822;2023-04-03T06:51:34;23.02;;;12.23;;
66603;SDS011;53460;39.612;8.822;2023-04-03T06:53:59;24.30;;;15.90;;
66603;SDS011;53460;39.612;8.822;2023-04-03T06:56:25;9.57;;;7.13;;
66603;SDS011;53460;39.612;8.822;2023-04-03T06:58:51;8.98;;;5.03;;
66603;SDS011;53460;39.612;8.822;2023-04-03T07:01:19;9.68;;;5.72;;
66603;SDS011;53460;39.612;8.822;2023-04-03T07:03:46;11.73;;;5.15;;
66603;SDS011;53460;39.612;8.822;2023-04-03T07:06:14;8.70;;;3.65;;
66603;SDS011;53460;39.612;8.822;2023-04-03T07:08:40;7.82;;;2.55;;
66603;SDS011;53460;39.612;8.822;2023-04-03T07:11:05;9.82;;;7.18;;
66603;SDS011;53460;39.612;8.822;2023-04-03T07:13:31;19.45;;;10.95;;
66603;SDS011;53460;39.612;8.822;2023-04-03T07:15:57;19.50;;;9.20;;
66603;SDS011;53460;39.612;8.822;2023-04-03T07:18:23;13.18;;;7.90;;
66603;SDS011;53460;39.612;8.822;2023-04-03T07:20:49;12.50;;;6.53;;
66603;SDS011;53460;39.612;8.822;2023-04-03T07:23:15;9.98;;;3.30;;
66603;SDS011;53460;39.612;8.822;2023-04-03T07:25:43;8.68;;;3.10;;
66603;SDS011;53460;39.612;8.822;2023-04-03T07:28:09;10.75;;;5.85;;
66603;SDS011;53460;39.612;8.822;2023-04-03T07:30:35;12.85;;;4.28;;
66603;SDS011;53460;39.612;8.822;2023-04-03T07:33:07;19.88;;;9.93;;
66603;SDS011;53460;39.612;8.822;2023-04-03T07:35:32;10.88;;;3.10;;
66603;SDS011;53460;39.612;8.822;2023-04-03T07:37:58;10.95;;;2.45;;
66603;SDS011;53460;39.612;8.822;2023-04-03T07:40:23;9.48;;;2.22;;
66603;SDS011;53460;39.612;8.822;2023-04-03T07:42:50;5.80;;;2.38;;
66603;SDS011;53460;39.612;8.822;2023-04-03T07:45:16;6.10;;;2.08;;
66603;SDS011;53460;39.612;8.822;2023-04-03T07:47:42;7.53;;;2.30;;
66603;SDS011;53460;39.612;8.822;2023-04-03T07:50:08;6.03;;;2.05;;
66603;SDS011;53460;39.612;8.822;2023-04-03T07:52:33;8.73;;;2.45;;
66603;SDS011;53460;39.612;8.822;2023-04-03T07:54:58;7.05;;;2.13;;
66603;SDS011;53460;39.612;8.822;2023-04-03T07:57:24;7.35;;;3.00;;
66603;SDS011;53460;39.612;8.822;2023-04-03T07:59:50;9.63;;;3.33;;
66603;SDS011;53460;39.612;8.822;2023-04-03T08:02:15;7.30;;;2.40;;
66603;SDS011;53460;39.612;8.822;2023-04-03T08:04:41;7.53;;;2.08;;
66603;SDS011;53460;39.612;8.822;2023-04-03T08:07:07;10.23;;;2.55;;
66603;SDS011;53460;39.612;8.822;2023-04-03T08:09:32;7.85;;;2.10;;
66603;SDS011;53460;39.612;8.822;2023-04-03T08:11:58;7.75;;;2.28;;
66603;SDS011;53460;39.612;8.822;2023-04-03T08:14:23;11.52;;;3.15;;
66603;SDS011;53460;39.612;8.822;2023-04-03T08:16:49;8.98;;;2.40;;
66603;SDS011;53460;39.612;8.822;2023-04-03T08:19:15;11.05;;;3.67;;
66603;SDS011;53460;39.612;8.822;2023-04-03T08:21:42;5.88;;;3.03;;
66603;SDS011;53460;39.612;8.822;2023-04-03T08:24:07;6.63;;;2.50;;
66603;SDS011;53460;39.612;8.822;2023-04-03T08:26:33;9.20;;;3.00;;
66603;SDS011;53460;39.612;8.822;2023-04-03T08:28:59;8.45;;;3.38;;
66603;SDS011;53460;39.612;8.822;2023-04-03T08:31:24;6.07;;;3.35;;
66603;SDS011;53460;39.612;8.822;2023-04-03T08:33:50;7.03;;;3.53;;
66603;SDS011;53460;39.612;8.822;2023-04-03T08:36:29;6.03;;;2.38;;
66603;SDS011;53460;39.612;8.822;2023-04-03T08:38:55;6.43;;;2.25;;
66603;SDS011;53460;39.612;8.822;2023-04-03T08:44:07;5.88;;;2.42;;
66603;SDS011;53460;39.612;8.822;2023-04-03T08:49:02;5.88;;;2.33;;
66603;SDS011;53460;39.612;8.822;2023-04-03T08:51:27;3.72;;;1.60;;
66603;SDS011;53460;39.612;8.822;2023-04-03T08:56:23;4.50;;;1.83;;
66603;SDS011;53460;39.612;8.822;2023-04-03T09:01:20;6.60;;;1.85;;
66603;SDS011;53460;39.612;8.822;2023-04-03T09:03:46;6.45;;;1.85;;
66603;SDS011;53460;39.612;8.822;2023-04-03T09:08:51;3.08;;;1.20;;
66603;SDS011;53460;39.612;8.822;2023-04-03T09:11:24;4.93;;;1.42;;
66603;SDS011;53460;39.612;8.822;2023-04-03T09:16:45;4.88;;;1.50;;
66603;SDS011;53460;39.612;8.822;2023-04-03T09:21:50;4.88;;;1.60;;
66603;SDS011;53460;39.612;8.822;2023-04-03T09:24:16;3.53;;;1.67;;
66603;SDS011;53460;39.612;8.822;2023-04-03T09:26:47;5.13;;;1.73;;
66603;SDS011;53460;39.612;8.822;2023-04-03T09:29:16;5.00;;;1.40;;
66603;SDS011;53460;39.612;8.822;2023-04-03T09:31:43;4.43;;;1.48;;
66603;SDS011;53460;39.612;8.822;2023-04-03T09:34:21;6.63;;;1.70;;
66603;SDS011;53460;39.612;8.822;2023-04-03T09:36:51;7.68;;;1.95;;
66603;SDS011;53460;39.612;8.822;2023-04-03T09:39:24;3.85;;;1.60;;
66603;SDS011;53460;39.612;8.822;2023-04-03T09:42:34;4.60;;;1.58;;
66603;SDS011;53460;39.612;8.822;2023-04-03T09:44:40;4.15;;;2.17;;
66603;SDS011;53460;39.612;8.822;2023-04-03T09:47:19;6.55;;;1.65;;
66603;SDS011;53460;39.612;8.822;2023-04-03T09:49:48;5.38;;;1.83;;
66603;SDS011;53460;39.612;8.822;2023-04-03T09:52:22;4.25;;;2.13;;
66603;SDS011;53460;39.612;8.822;2023-04-03T09:54:48;3.95;;;2.22;;
66603;SDS011;53460;39.612;8.822;2023-04-03T09:57:14;6.13;;;2.45;;
66603;SDS011;53460;39.612;8.822;2023-04-03T09:59:47;5.18;;;2.10;;
66603;SDS011;53460;39.612;8.822;2023-04-03T10:02:39;3.85;;;2.00;;
66603;SDS011;53460;39.612;8.822;2023-04-03T10:07:50;5.28;;;2.40;;
66603;SDS011;53460;39.612;8.822;2023-04-03T10:10:20;5.15;;;1.77;;
66603;SDS011;53460;39.612;8.822;2023-04-03T10:12:57;3.78;;;1.25;;
66603;SDS011;53460;39.612;8.822;2023-04-03T10:15:28;4.05;;;1.20;;
66603;SDS011;53460;39.612;8.822;2023-04-03T10:18:03;3.00;;;1.15;;
66603;SDS011;53460;39.612;8.822;2023-04-03T10:29:02;1.90;;;1.00;;
66603;SDS011;53460;39.612;8.822;2023-04-03T10:31:39;3.03;;;0.95;;
66603;SDS011;53460;39.612;8.822;2023-04-03T10:36:50;2.72;;;1.00;;
66603;SDS011;53460;39.612;8.822;2023-04-03T10:39:22;5.03;;;1.50;;
66603;SDS011;53460;39.612;8.822;2023-04-03T10:47:47;2.28;;;1.50;;
66603;SDS011;53460;39.612;8.822;2023-04-03T10:52:38;2.40;;;0.80;;
66603;SDS011;53460;39.612;8.822;2023-04-03T10:57:38;2.72;;;1.10;;
66603;SDS011;53460;39.612;8.822;2023-04-03T11:00:06;1.90;;;1.13;;
66603;SDS011;53460;39.612;8.822;2023-04-03T11:02:36;2.45;;;0.88;;
66603;SDS011;53460;39.612;8.822;2023-04-03T11:07:31;2.83;;;1.38;;
66603;SDS011;53460;39.612;8.822;2023-04-03T11:10:02;3.15;;;1.50;;
66603;SDS011;53460;39.612;8.822;2023-04-03T11:12:32;2.92;;;1.15;;
66603;SDS011;53460;39.612;8.822;2023-04-03T11:15:29;6.40;;;1.40;;
66603;SDS011;53460;39.612;8.822;2023-04-03T11:17:58;4.40;;;1.70;;
66603;SDS011;53460;39.612;8.822;2023-04-03T11:20:29;3.80;;;1.58;;
66603;SDS011;53460;39.612;8.822;2023-04-03T11:25:27;8.35;;;1.98;;
66603;SDS011;53460;39.612;8.822;2023-04-03T11:27:55;3.22;;;1.42;;
66603;SDS011;53460;39.612;8.822;2023-04-03T11:35:35;5.25;;;1.52;;
66603;SDS011;53460;39.612;8.822;2023-04-03T11:38:01;7.65;;;2.08;;
66603;SDS011;53460;39.612;8.822;2023-04-03T11:40:28;8.57;;;2.50;;
66603;SDS011;53460;39.612;8.822;2023-04-03T11:52:59;3.60;;;1.90;;
66603;SDS011;53460;39.612;8.822;2023-04-03T12:03:29;5.90;;;2.35;;
66603;SDS011;53460;39.612;8.822;2023-04-03T12:08:29;5.72;;;1.95;;
66603;SDS011;53460;39.612;8.822;2023-04-03T12:13:41;3.72;;;1.20;;
66603;SDS011;53460;39.612;8.822;2023-04-03T12:16:28;7.53;;;1.45;;
66603;SDS011;53460;39.612;8.822;2023-04-03T12:29:01;3.92;;;1.52;;
66603;SDS011;53460;39.612;8.822;2023-04-03T12:31:32;6.05;;;1.75;;
66603;SDS011;53460;39.612;8.822;2023-04-03T12:36:49;7.10;;;1.83;;
66603;SDS011;53460;39.612;8.822;2023-04-03T12:39:20;6.95;;;2.03;;
66603;SDS011;53460;39.612;8.822;2023-04-03T12:46:48;3.42;;;1.60;;
66603;SDS011;53460;39.612;8.822;2023-04-03T12:49:18;2.53;;;1.25;;
66603;SDS011;53460;39.612;8.822;2023-04-03T12:51:46;2.07;;;0.77;;
66603;SDS011;53460;39.612;8.822;2023-04-03T12:54:16;2.28;;;1.00;;
66603;SDS011;53460;39.612;8.822;2023-04-03T12:56:42;3.70;;;1.35;;
66603;SDS011;53460;39.612;8.822;2023-04-03T13:01:43;4.60;;;1.50;;
66603;SDS011;53460;39.612;8.822;2023-04-03T13:04:09;4.50;;;1.60;;
66603;SDS011;53460;39.612;8.822;2023-04-03T13:06:41;4.88;;;1.67;;
66603;SDS011;53460;39.612;8.822;2023-04-03T13:11:49;4.97;;;1.55;;
66603;SDS011;53460;39.612;8.822;2023-04-03T13:14:16;6.00;;;1.98;;
66603;SDS011;53460;39.612;8.822;2023-04-03T13:16:42;5.72;;;1.63;;
66603;SDS011;53460;39.612;8.822;2023-04-03T13:19:15;9.38;;;2.67;;
66603;SDS011;53460;39.612;8.822;2023-04-03T13:21:41;7.68;;;2.30;;
66603;SDS011;53460;39.612;8.822;2023-04-03T13:36:23;12.60;;;3.13;;
66603;SDS011;53460;39.612;8.822;2023-04-03T13:39:00;24.08;;;3.63;;
66603;SDS011;53460;39.612;8.822;2023-04-03T13:41:29;5.32;;;1.80;;
66603;SDS011;53460;39.612;8.822;2023-04-03T13:43:54;7.78;;;2.40;;
66603;SDS011;53460;39.612;8.822;2023-04-03T13:46:22;15.13;;;3.88;;
66603;SDS011;53460;39.612;8.822;2023-04-03T13:48:50;11.35;;;3.78;;
66603;SDS011;53460;39.612;8.822;2023-04-03T13:53:52;4.82;;;2.60;;
66603;SDS011;53460;39.612;8.822;2023-04-03T13:56:31;6.00;;;1.73;;
66603;SDS011;53460;39.612;8.822;2023-04-03T14:01:25;4.93;;;1.50;;
66603;SDS011;53460;39.612;8.822;2023-04-03T14:03:59;10.73;;;3.10;;
66603;SDS011;53460;39.612;8.822;2023-04-03T14:06:26;5.90;;;1.63;;
66603;SDS011;53460;39.612;8.822;2023-04-03T14:08:52;3.53;;;1.27;;
66603;SDS011;53460;39.612;8.822;2023-04-03T14:11:18;3.75;;;1.30;;
66603;SDS011;53460;39.612;8.822;2023-04-03T14:13:46;6.28;;;1.85;;
66603;SDS011;53460;39.612;8.822;2023-04-03T14:16:15;4.38;;;1.60;;
66603;SDS011;53460;39.612;8.822;2023-04-03T14:18:42;7.32;;;2.08;;
66603;SDS011;53460;39.612;8.822;2023-04-03T14:21:09;3.25;;;1.33;;
66603;SDS011;53460;39.612;8.822;2023-04-03T14:23:35;13.30;;;2.00;;
66603;SDS011;53460;39.612;8.822;2023-04-03T14:26:01;3.58;;;1.70;;
66603;SDS011;53460;39.612;8.822;2023-04-03T14:28:27;22.08;;;2.65;;
66603;SDS011;53460;39.612;8.822;2023-04-03T14:30:53;10.93;;;1.73;;
66603;SDS011;53460;39.612;8.822;2023-04-03T14:33:19;9.10;;;2.25;;
66603;SDS011;53460;39.612;8.822;2023-04-03T14:35:46;7.25;;;2.60;;
66603;SDS011;53460;39.612;8.822;2023-04-03T14:38:13;3.58;;;1.50;;
66603;SDS011;53460;39.612;8.822;2023-04-03T14:40:45;4.95;;;1.63;;
66603;SDS011;53460;39.612;8.822;2023-04-03T14:43:12;6.60;;;1.98;;
66603;SDS011;53460;39.612;8.822;2023-04-03T14:45:38;4.10;;;1.40;;
66603;SDS011;53460;39.612;8.822;2023-04-03T14:48:03;3.88;;;1.73;;
66603;SDS011;53460;39.612;8.822;2023-04-03T14:50:29;8.25;;;3.78;;
66603;SDS011;53460;39.612;8.822;2023-04-03T14:52:56;8.15;;;3.03;;
66603;SDS011;53460;39.612;8.822;2023-04-03T14:55:23;8.80;;;4.97;;
66603;SDS011;53460;39.612;8.822;2023-04-03T14:57:50;6.60;;;3.25;;
66603;SDS011;53460;39.612;8.822;2023-04-03T15:00:16;3.83;;;1.83;;
66603;SDS011;53460;39.612;8.822;2023-04-03T15:02:42;2.47;;;1.50;;
66603;SDS011;53460;39.612;8.822;2023-04-03T15:05:08;3.60;;;1.45;;
66603;SDS011;53460;39.612;8.822;2023-04-03T15:07:35;4.05;;;1.52;;
66603;SDS011;53460;39.612;8.822;2023-04-03T15:10:05;8.35;;;1.77;;
66603;SDS011;53460;39.612;8.822;2023-04-03T15:12:31;4.47;;;1.60;;
66603;SDS011;53460;39.612;8.822;2023-04-03T15:14:57;6.88;;;1.73;;
66603;SDS011;53460;39.612;8.822;2023-04-03T15:17:22;4.13;;;2.22;;
66603;SDS011;53460;39.612;8.822;2023-04-03T15:19:48;6.60;;;2.35;;
66603;SDS011;53460;39.612;8.822;2023-04-03T15:22:15;5.40;;;2.03;;
66603;SDS011;53460;39.612;8.822;2023-04-03T15:24:42;4.60;;;2.17;;
66603;SDS011;53460;39.612;8.822;2023-04-03T15:27:08;9.82;;;1.92;;
66603;SDS011;53460;39.612;8.822;2023-04-03T15:29:34;6.55;;;1.73;;
66603;SDS011;53460;39.612;8.822;2023-04-03T15:31:59;8.02;;;1.70;;
66603;SDS011;53460;39.612;8.822;2023-04-03T15:34:25;16.00;;;1.83;;
66603;SDS011;53460;39.612;8.822;2023-04-03T15:36:50;8.55;;;2.15;;
66603;SDS011;53460;39.612;8.822;2023-04-03T15:39:19;6.53;;;1.85;;
66603;SDS011;53460;39.612;8.822;2023-04-03T15:41:45;8.48;;;1.85;;
66603;SDS011;53460;39.612;8.822;2023-04-03T15:44:11;3.97;;;1.63;;
66603;SDS011;53460;39.612;8.822;2023-04-03T15:46:37;9.25;;;2.13;;
66603;SDS011;53460;39.612;8.822;2023-04-03T15:49:03;4.57;;;1.65;;
66603;SDS011;53460;39.612;8.822;2023-04-03T15:51:29;8.10;;;2.08;;
66603;SDS011;53460;39.612;8.822;2023-04-03T15:53:55;9.38;;;2.30;;
66603;SDS011;53460;39.612;8.822;2023-04-03T15:56:20;11.73;;;2.05;;
66603;SDS011;53460;39.612;8.822;2023-04-03T15:58:46;4.95;;;2.00;;
66603;SDS011;53460;39.612;8.822;2023-04-03T16:01:11;5.53;;;1.75;;
66603;SDS011;53460;39.612;8.822;2023-04-03T16:03:37;7.50;;;2.05;;
66603;SDS011;53460;39.612;8.822;2023-04-03T16:06:08;7.90;;;1.85;;
66603;SDS011;53460;39.612;8.822;2023-04-03T16:08:34;6.57;;;1.55;;
66603;SDS011;53460;39.612;8.822;2023-04-03T16:11:01;5.78;;;1.88;;
66603;SDS011;53460;39.612;8.822;2023-04-03T16:13:27;13.07;;;2.08;;
66603;SDS011;53460;39.612;8.822;2023-04-03T16:15:53;7.40;;;2.33;;
66603;SDS011;53460;39.612;8.822;2023-04-03T16:18:18;2.60;;;1.75;;
66603;SDS011;53460;39.612;8.822;2023-04-03T16:20:44;3.58;;;2.30;;
66603;SDS011;53460;39.612;8.822;2023-04-03T16:23:09;3.88;;;1.40;;
66603;SDS011;53460;39.612;8.822;2023-04-03T16:25:36;2.50;;;1.10;;
66603;SDS011;53460;39.612;8.822;2023-04-03T16:28:02;5.53;;;1.20;;
66603;SDS011;53460;39.612;8.822;2023-04-03T16:30:28;3.28;;;0.90;;
66603;SDS011;53460;39.612;8.822;2023-04-03T16:32:54;3.65;;;1.10;;
66603;SDS011;53460;39.612;8.822;2023-04-03T16:35:20;1.08;;;0.75;;
66603;SDS011;53460;39.612;8.822;2023-04-03T16:37:46;4.00;;;0.88;;
66603;SDS011;53460;39.612;8.822;2023-04-03T16:40:12;5.57;;;1.20;;
66603;SDS011;53460;39.612;8.822;2023-04-03T16:42:37;3.13;;;0.88;;
66603;SDS011;53460;39.612;8.822;2023-04-03T16:45:04;3.58;;;1.23;;
66603;SDS011;53460;39.612;8.822;2023-04-03T16:47:30;6.47;;;1.40;;
66603;SDS011;53460;39.612;8.822;2023-04-03T16:49:55;3.22;;;1.27;;
66603;SDS011;53460;39.612;8.822;2023-04-03T16:52:21;4.78;;;1.40;;